createdAt,value
2022-11-22T00:00:42.904Z,4.00
2022-11-22T00:03:10.329Z,4.13
2022-11-22T00:05:37.670Z,4.20
2022-11-22T00:08:05.287Z,4.00
2022-11-22T00:10:33.060Z,4.70
2022-11-22T00:13:00.548Z,4.50
2022-11-22T00:15:27.859Z,4.10
2022-11-22T00:17:55.206Z,4.77
2022-11-22T00:20:22.469Z,4.00
2022-11-22T00:22:49.698Z,4.37
2022-11-22T00:25:17.018Z,4.20
2022-11-22T00:27:44.347Z,3.90
2022-11-22T00:30:11.770Z,4.67
2022-11-22T00:32:38.946Z,4.10
2022-11-22T00:35:06.718Z,3.60
2022-11-22T00:37:34.247Z,4.00
2022-11-22T00:40:02.190Z,3.93
2022-11-22T00:42:29.363Z,3.70
2022-11-22T00:44:56.778Z,3.83
2022-11-22T00:47:24.318Z,4.00
2022-11-22T00:49:51.452Z,3.67
2022-11-22T00:52:18.580Z,3.87
2022-11-22T00:54:48.843Z,4.13
2022-11-22T00:57:18.750Z,3.80
2022-11-22T00:59:46.111Z,3.50
2022-11-22T01:02:13.256Z,3.63
2022-11-22T01:04:40.607Z,3.43
2022-11-22T01:07:07.798Z,3.40
2022-11-22T01:09:35.118Z,3.00
2022-11-22T01:12:02.371Z,3.33
2022-11-22T01:14:29.642Z,3.43
2022-11-22T01:16:56.793Z,3.23
2022-11-22T01:19:23.951Z,2.97
2022-11-22T01:21:51.451Z,3.07
2022-11-22T01:24:18.623Z,3.40
2022-11-22T01:26:45.790Z,3.30
2022-11-22T01:29:12.960Z,3.10
2022-11-22T01:31:40.179Z,3.10
2022-11-22T01:34:07.410Z,3.00
2022-11-22T01:36:34.572Z,2.50
2022-11-22T01:39:01.825Z,3.03
2022-11-22T01:41:29.141Z,2.90
2022-11-22T01:43:56.306Z,2.80
2022-11-22T01:46:34.339Z,2.83
2022-11-22T01:49:12.847Z,2.83
2022-11-22T01:51:48.298Z,2.93
2022-11-22T01:54:19.557Z,3.00
2022-11-22T01:56:54.599Z,3.23
2022-11-22T01:59:25.958Z,2.93
2022-11-22T02:01:54.150Z,2.93
2022-11-22T02:04:23.867Z,2.90
2022-11-22T02:06:56.398Z,2.90
2022-11-22T02:09:23.821Z,2.60
2022-11-22T02:11:53.732Z,2.60
2022-11-22T02:14:25.133Z,2.30
2022-11-22T02:16:53.050Z,2.73
2022-11-22T02:19:32.066Z,2.83
2022-11-22T02:22:06.560Z,2.50
2022-11-22T02:24:42.191Z,2.20
2022-11-22T02:27:09.533Z,2.50
2022-11-22T02:29:36.831Z,2.43
2022-11-22T02:32:04.341Z,2.13
2022-11-22T02:34:42.320Z,2.07
2022-11-22T02:37:11.212Z,2.30
2022-11-22T02:39:40.601Z,1.80
2022-11-22T02:42:08.147Z,1.50
2022-11-22T02:44:35.416Z,1.40
2022-11-22T02:47:02.561Z,1.60
2022-11-22T02:49:30.286Z,1.60
2022-11-22T02:51:57.619Z,1.43
2022-11-22T02:54:24.807Z,1.60
2022-11-22T02:56:52.053Z,1.30
2022-11-22T02:59:19.307Z,1.50
2022-11-22T03:01:48.194Z,1.40
2022-11-22T03:04:24.774Z,1.70
2022-11-22T03:06:54.654Z,1.60
2022-11-22T03:09:22.889Z,1.37
2022-11-22T03:11:50.678Z,1.50
2022-11-22T03:14:17.986Z,1.57
2022-11-22T03:22:31.233Z,1.20
2022-11-22T03:24:58.374Z,1.60
2022-11-22T03:27:25.634Z,1.50
2022-11-22T03:29:52.774Z,1.40
2022-11-22T03:32:20.058Z,1.30
2022-11-22T03:34:47.233Z,1.50
2022-11-22T03:37:14.454Z,1.20
2022-11-22T03:57:53.179Z,1.60
2022-11-22T04:00:20.486Z,1.27
2022-11-22T04:02:47.596Z,1.33
2022-11-22T04:05:15.315Z,1.60
2022-11-22T04:07:42.778Z,1.40
2022-11-22T04:10:10.482Z,1.40
2022-11-22T04:12:37.747Z,1.60
2022-11-22T04:15:08.170Z,1.60
2022-11-22T04:17:41.651Z,1.50
2022-11-22T04:20:32.336Z,1.50
2022-11-22T04:23:05.343Z,1.60
2022-11-22T04:25:34.422Z,1.57
2022-11-22T04:28:04.004Z,1.60
2022-11-22T04:30:54.551Z,1.60
2022-11-22T04:33:22.360Z,1.57
2022-11-22T04:35:50.680Z,1.73
2022-11-22T04:38:18.455Z,1.83
2022-11-22T04:40:46.394Z,1.70
2022-11-22T04:43:50.420Z,1.73
2022-11-22T04:46:17.542Z,1.80
2022-11-22T04:48:44.687Z,1.80
2022-11-22T04:51:33.128Z,1.70
2022-11-22T04:54:00.370Z,1.50
2022-11-22T04:56:27.607Z,1.57
2022-11-22T04:58:54.768Z,1.30
2022-11-22T05:01:22.183Z,1.40
2022-11-22T05:03:49.508Z,1.47
2022-11-22T05:06:16.676Z,1.50
2022-11-22T05:08:43.821Z,1.50
2022-11-22T05:11:10.984Z,1.40
2022-11-22T05:13:40.593Z,1.47
2022-11-22T05:16:10.554Z,1.23
2022-11-22T05:18:38.695Z,1.70
2022-11-22T05:21:13.628Z,1.60
2022-11-22T05:23:56.576Z,1.50
2022-11-22T05:26:32.341Z,1.70
2022-11-22T05:29:05.347Z,1.67
2022-11-22T05:31:33.918Z,1.70
2022-11-22T05:34:01.542Z,1.70
2022-11-22T05:36:32.724Z,1.47
2022-11-22T05:39:00.477Z,1.50
2022-11-22T05:41:27.859Z,1.60
2022-11-22T05:43:56.723Z,1.63
2022-11-22T05:46:26.666Z,1.70
2022-11-22T05:48:56.035Z,1.47
2022-11-22T05:51:30.842Z,1.57
2022-11-22T05:54:01.117Z,1.73
2022-11-22T05:56:28.241Z,1.70
2022-11-22T05:58:55.874Z,1.40
2022-11-22T06:01:24.448Z,1.50
2022-11-22T06:03:52.291Z,1.80
2022-11-22T06:06:20.050Z,1.73
2022-11-22T06:08:48.798Z,1.70
2022-11-22T06:11:20.419Z,2.10
2022-11-22T06:13:49.442Z,2.07
2022-11-22T06:16:17.002Z,1.77
2022-11-22T06:18:44.508Z,1.90
2022-11-22T06:21:17.410Z,1.93
2022-11-22T06:23:45.009Z,2.00
2022-11-22T06:26:15.193Z,2.07
2022-11-22T06:28:43.007Z,2.03
2022-11-22T06:31:18.651Z,2.30
2022-11-22T06:33:46.005Z,2.37
2022-11-22T06:36:16.233Z,2.07
2022-11-22T06:38:44.659Z,2.20
2022-11-22T06:41:17.722Z,2.20
2022-11-22T06:43:49.013Z,2.53
2022-11-22T06:46:23.120Z,2.20
2022-11-22T06:48:51.232Z,2.47
2022-11-22T06:51:21.694Z,2.27
2022-11-22T06:53:49.937Z,2.53
2022-11-22T06:56:23.297Z,2.20
2022-11-22T06:58:51.971Z,2.10
2022-11-22T07:01:30.489Z,2.00
2022-11-22T07:03:59.225Z,2.30
2022-11-22T07:06:29.144Z,2.47
2022-11-22T07:08:57.193Z,2.30
2022-11-22T07:11:29.036Z,2.50
2022-11-22T07:14:01.909Z,2.53
2022-11-22T07:16:34.024Z,2.20
2022-11-22T07:19:01.485Z,2.80
2022-11-22T07:21:28.761Z,3.00
2022-11-22T07:23:56.680Z,2.90
2022-11-22T07:26:25.357Z,2.83
2022-11-22T07:28:53.008Z,3.00
2022-11-22T07:31:20.807Z,2.50
2022-11-22T07:33:48.437Z,2.83
2022-11-22T07:36:18.385Z,2.97
2022-11-22T07:38:47.729Z,3.03
2022-11-22T07:41:16.014Z,3.20
2022-11-22T07:43:43.609Z,3.30
2022-11-22T07:46:29.177Z,3.17
2022-11-22T07:48:57.408Z,3.30
2022-11-22T07:51:24.782Z,3.40
2022-11-22T07:53:52.235Z,3.40
2022-11-22T07:56:19.540Z,3.43
2022-11-22T07:58:47.254Z,3.33
2022-11-22T08:01:17.005Z,3.43
2022-11-22T08:03:45.284Z,3.67
2022-11-22T08:06:14.547Z,3.30
2022-11-22T08:08:41.970Z,3.43
2022-11-22T08:11:10.786Z,3.23
2022-11-22T08:13:38.836Z,3.90
2022-11-22T08:16:09.342Z,3.03
2022-11-22T08:18:38.192Z,3.50
2022-11-22T08:21:10.626Z,3.97
2022-11-22T08:23:38.671Z,3.70
2022-11-22T08:26:07.627Z,3.80
2022-11-22T08:28:35.732Z,3.37
2022-11-22T08:31:06.583Z,3.70
2022-11-22T08:33:34.221Z,3.90
2022-11-22T08:36:01.395Z,3.50
2022-11-22T08:38:28.536Z,3.40
2022-11-22T08:40:56.185Z,3.20
2022-11-22T08:43:23.547Z,3.83
2022-11-22T08:45:56.940Z,3.47
2022-11-22T08:48:28.110Z,3.90
2022-11-22T08:51:00.823Z,3.33
2022-11-22T08:53:29.747Z,3.40
2022-11-22T08:55:59.576Z,3.50
2022-11-22T08:58:28.824Z,3.60
2022-11-22T09:00:56.095Z,3.27
2022-11-22T09:03:23.428Z,3.20
2022-11-22T09:08:42.991Z,3.30
2022-11-22T09:11:14.574Z,3.80
2022-11-22T09:13:42.171Z,3.20
2022-11-22T09:16:18.886Z,3.00
2022-11-22T09:18:47.263Z,3.20
2022-11-22T09:21:17.954Z,4.13
2022-11-22T09:23:49.739Z,3.60
2022-11-22T09:26:20.043Z,3.10
2022-11-22T09:28:47.813Z,3.47
2022-11-22T09:31:18.308Z,4.10
2022-11-22T09:33:46.283Z,3.90
2022-11-22T09:36:26.187Z,3.70
2022-11-22T09:38:54.839Z,3.47
2022-11-22T09:41:33.705Z,3.90
2022-11-22T09:44:31.883Z,3.40
2022-11-22T09:47:16.710Z,2.83
2022-11-22T09:50:22.034Z,3.03
2022-11-22T09:53:08.475Z,3.43
2022-11-22T09:55:41.576Z,3.20
2022-11-22T09:58:26.710Z,2.90
2022-11-22T10:01:01.900Z,3.00
2022-11-22T10:04:01.006Z,3.20
2022-11-22T10:06:40.113Z,2.70
2022-11-22T10:09:10.790Z,2.90
2022-11-22T10:11:51.966Z,2.90
2022-11-22T10:14:37.171Z,2.50
2022-11-22T10:17:09.994Z,2.37
2022-11-22T10:19:49.030Z,2.63
2022-11-22T10:22:16.424Z,2.50
2022-11-22T10:24:43.790Z,2.53
2022-11-22T10:27:14.139Z,2.80
2022-11-22T10:29:57.899Z,2.70
2022-11-22T10:32:40.102Z,2.20
2022-11-22T10:35:32.126Z,2.30
2022-11-22T10:38:28.572Z,2.20
2022-11-22T10:41:11.801Z,2.43
2022-11-22T10:44:12.977Z,2.63
2022-11-22T10:47:10.298Z,2.60
2022-11-22T10:50:05.001Z,2.53
2022-11-22T10:52:39.755Z,2.37
2022-11-22T10:55:19.367Z,2.20
2022-11-22T10:57:52.663Z,2.77
2022-11-22T11:00:28.310Z,2.43
2022-11-22T11:03:20.218Z,2.50
2022-11-22T11:06:29.638Z,2.60
2022-11-22T11:10:09.057Z,2.30
2022-11-22T11:11:56.019Z,2.43
2022-11-22T11:14:40.347Z,2.40
2022-11-22T11:17:07.825Z,2.60
2022-11-22T11:19:41.617Z,2.50
2022-11-22T11:22:08.725Z,2.60
2022-11-22T11:24:40.994Z,3.20
2022-11-22T11:27:10.991Z,2.20
2022-11-22T11:29:42.449Z,2.33
2022-11-22T11:32:20.061Z,2.33
2022-11-22T11:35:01.384Z,2.60
2022-11-22T11:37:39.006Z,2.30
2022-11-22T11:40:25.746Z,2.13
2022-11-22T11:43:15.755Z,2.30
2022-11-22T11:45:43.034Z,2.40
2022-11-22T11:48:37.528Z,2.03
2022-11-22T11:51:16.870Z,2.40
2022-11-22T11:53:53.432Z,1.90
2022-11-22T11:56:34.321Z,2.07
2022-11-22T11:59:10.461Z,2.40
2022-11-22T12:01:44.174Z,2.37
2022-11-22T12:04:21.478Z,2.03
2022-11-22T12:07:36.018Z,1.87
2022-11-22T12:10:28.948Z,1.60
2022-11-22T12:13:04.794Z,1.40
2022-11-22T12:15:56.340Z,1.70
2022-11-22T12:18:23.467Z,1.73
2022-11-22T12:21:16.552Z,2.00
2022-11-22T12:24:19.906Z,2.20
2022-11-22T12:26:48.376Z,2.47
2022-11-22T12:29:16.479Z,2.57
2022-11-22T12:32:00.314Z,2.40
2022-11-22T12:34:54.738Z,2.33
2022-11-22T12:37:30.870Z,2.43
2022-11-22T12:40:04.132Z,2.30
2022-11-22T12:42:48.266Z,2.57
2022-11-22T12:45:32.541Z,2.60
2022-11-22T12:48:05.978Z,2.10
2022-11-22T12:50:49.471Z,2.23
2022-11-22T12:53:49.783Z,2.10
2022-11-22T12:56:33.357Z,2.30
2022-11-22T12:59:09.982Z,2.23
2022-11-22T13:01:37.202Z,2.20
2022-11-22T13:04:19.057Z,2.53
2022-11-22T13:06:52.051Z,2.20
2022-11-22T13:09:23.272Z,2.27
2022-11-22T13:12:09.651Z,2.30
2022-11-22T13:14:44.536Z,2.47
2022-11-22T13:17:15.405Z,2.23
2022-11-22T13:19:50.431Z,2.53
2022-11-22T13:22:49.789Z,2.73
2022-11-22T13:25:34.402Z,2.60
2022-11-22T13:28:05.850Z,2.80
2022-11-22T13:30:35.228Z,2.43
2022-11-22T13:33:02.422Z,2.87
2022-11-22T13:35:32.660Z,3.10
2022-11-22T13:38:18.045Z,2.83
2022-11-22T13:40:47.680Z,2.80
2022-11-22T13:43:21.383Z,2.73
2022-11-22T13:45:50.553Z,2.60
2022-11-22T13:48:36.674Z,2.27
2022-11-22T13:51:04.350Z,2.50
2022-11-22T13:53:36.979Z,2.53
2022-11-22T13:56:16.064Z,2.63
2022-11-22T13:58:50.743Z,2.70
2022-11-22T14:01:33.740Z,2.50
2022-11-22T14:04:16.234Z,2.43
2022-11-22T14:07:12.996Z,2.70
2022-11-22T14:09:56.615Z,2.93
2022-11-22T14:12:53.004Z,2.93
2022-11-22T14:15:47.507Z,3.27
2022-11-22T14:18:42.988Z,3.13
2022-11-22T14:21:20.009Z,3.30
2022-11-22T14:24:04.818Z,3.10
2022-11-22T14:26:53.638Z,3.30
2022-11-22T14:29:53.568Z,2.90
2022-11-22T14:32:23.970Z,3.70
2022-11-22T14:35:21.491Z,2.83
2022-11-22T14:37:59.427Z,2.80
2022-11-22T14:40:30.115Z,4.03
2022-11-22T14:43:32.464Z,3.57
2022-11-22T14:46:30.361Z,3.60
2022-11-22T14:49:33.951Z,3.43
2022-11-22T14:52:01.921Z,3.00
2022-11-22T14:54:52.414Z,3.73
2022-11-22T14:57:22.413Z,13.30
2022-11-22T15:00:14.849Z,4.10
2022-11-22T15:02:51.485Z,3.60
2022-11-22T15:09:13.452Z,15.90
2022-11-22T15:09:13.537Z,3.93
2022-11-22T15:11:37.298Z,9.00
2022-11-22T15:14:33.825Z,5.80
2022-11-22T15:57:29.333Z,5.87
2022-11-22T15:59:57.932Z,4.53
2022-11-22T16:02:29.662Z,4.00
2022-11-22T16:06:08.282Z,4.80
2022-11-22T16:07:55.088Z,4.73
2022-11-22T16:10:23.789Z,9.67
2022-11-22T16:12:52.473Z,5.83
2022-11-22T16:15:27.071Z,8.03
2022-11-22T16:18:14.588Z,6.33
2022-11-22T16:20:57.767Z,10.00
2022-11-22T16:23:29.957Z,5.73
2022-11-22T16:26:24.955Z,5.20
2022-11-22T16:28:53.892Z,5.30
2022-11-22T16:31:31.574Z,4.80
2022-11-22T16:33:59.186Z,6.50
2022-11-22T16:36:29.823Z,5.60
2022-11-22T16:38:57.003Z,6.20
2022-11-22T16:41:34.776Z,6.40
2022-11-22T16:44:06.426Z,5.80
2022-11-22T16:46:33.608Z,7.00
2022-11-22T16:49:00.763Z,7.30
2022-11-22T16:51:30.002Z,6.10
2022-11-22T16:54:00.029Z,5.77
2022-11-22T16:56:29.988Z,5.93
2022-11-22T16:58:58.339Z,5.60
2022-11-22T17:01:30.829Z,4.50
2022-11-22T17:03:59.192Z,5.07
2022-11-22T17:06:28.219Z,4.20
2022-11-22T17:08:57.340Z,4.40
2022-11-22T17:11:27.087Z,4.40
2022-11-22T17:13:54.871Z,4.57
2022-11-22T17:16:22.091Z,4.80
2022-11-22T17:18:49.296Z,7.33
2022-11-22T17:21:25.264Z,16.27
2022-11-22T17:23:56.064Z,12.93
2022-11-22T17:26:23.337Z,19.17
2022-11-22T17:28:50.763Z,12.20
2022-11-22T17:31:19.971Z,19.93
2022-11-22T17:33:51.478Z,9.00
2022-11-22T17:36:24.671Z,14.30
2022-11-22T17:38:51.903Z,14.17
2022-11-22T17:41:19.536Z,24.67
2022-11-22T17:43:46.832Z,11.40
2022-11-22T17:46:14.050Z,17.30
2022-11-22T17:48:42.588Z,29.23
2022-11-22T17:51:11.439Z,11.37
2022-11-22T17:53:39.488Z,9.10
2022-11-22T17:56:11.408Z,7.37
2022-11-22T17:58:40.427Z,5.60
2022-11-22T18:01:16.232Z,5.80
2022-11-22T18:03:44.484Z,6.73
2022-11-22T18:06:12.710Z,6.97
2022-11-22T18:08:46.915Z,5.60
2022-11-22T18:11:15.873Z,5.93
2022-11-22T18:13:43.497Z,6.60
2022-11-22T18:16:14.070Z,6.33
2022-11-22T18:18:56.775Z,6.10
2022-11-22T18:21:25.246Z,6.10
2022-11-22T18:23:52.487Z,6.67
2022-11-22T18:29:39.035Z,8.93
2022-11-22T18:31:56.112Z,10.13
2022-11-22T18:34:23.579Z,11.27
2022-11-22T18:36:56.288Z,12.47
2022-11-22T18:39:27.135Z,12.17
2022-11-22T18:41:54.288Z,10.03
2022-11-22T18:44:21.533Z,9.80
2022-11-22T18:46:48.824Z,7.67
2022-11-22T18:49:16.003Z,7.77
2022-11-22T18:51:43.327Z,7.60
2022-11-22T18:54:10.733Z,7.90
2022-11-22T18:56:40.088Z,7.57
2022-11-22T18:59:09.889Z,8.43
2022-11-22T19:01:37.211Z,8.20
2022-11-22T19:04:04.962Z,8.90
2022-11-22T19:06:32.316Z,8.63
2022-11-22T19:09:00.769Z,7.87
2022-11-22T19:11:30.161Z,7.57
2022-11-22T19:13:57.541Z,7.67
2022-11-22T19:16:27.884Z,6.63
2022-11-22T19:18:55.491Z,7.33
2022-11-22T19:21:25.976Z,7.20
2022-11-22T19:23:53.265Z,7.73
2022-11-22T19:26:23.594Z,6.93
2022-11-22T19:28:55.303Z,6.40
2022-11-22T19:31:27.875Z,7.13
2022-11-22T19:33:55.331Z,6.97
2022-11-22T19:36:30.713Z,7.63
2022-11-22T19:39:00.006Z,7.10
2022-11-22T19:41:27.289Z,6.60
2022-11-22T19:43:56.420Z,6.97
2022-11-22T19:46:24.472Z,7.37
2022-11-22T19:48:52.783Z,8.10
2022-11-22T19:51:20.854Z,8.83
2022-11-22T19:53:48.092Z,7.80
2022-11-22T19:56:17.977Z,8.23
2022-11-22T19:58:50.612Z,12.77
2022-11-22T20:01:18.565Z,9.37
2022-11-22T20:03:46.301Z,9.00
2022-11-22T20:06:14.188Z,9.47
2022-11-22T20:08:41.563Z,8.17
2022-11-22T20:11:11.492Z,9.13
2022-11-22T20:13:40.971Z,7.43
2022-11-22T20:16:24.591Z,10.40
2022-11-22T20:18:56.253Z,8.60
2022-11-22T20:21:24.753Z,9.97
2022-11-22T20:23:52.337Z,8.67
2022-11-22T20:26:21.191Z,8.50
2022-11-22T20:28:58.125Z,8.80
2022-11-22T20:31:25.983Z,11.23
2022-11-22T20:33:55.141Z,10.20
2022-11-22T20:36:25.120Z,10.17
2022-11-22T20:38:53.450Z,12.40
2022-11-22T20:41:24.017Z,12.17
2022-11-22T20:43:51.858Z,9.67
2022-11-22T20:46:21.394Z,13.63
2022-11-22T20:49:00.446Z,9.60
2022-11-22T20:51:28.499Z,8.27
2022-11-22T20:53:56.289Z,10.13
2022-11-22T20:56:24.382Z,8.40
2022-11-22T20:58:52.336Z,29.30
2022-11-22T21:01:25.903Z,9.63
2022-11-22T21:03:54.396Z,8.07
2022-11-22T21:06:24.233Z,7.53
2022-11-22T21:08:51.940Z,6.67
2022-11-22T21:11:26.369Z,8.63
2022-11-22T21:13:53.951Z,7.10
2022-11-22T21:16:26.236Z,10.27
2022-11-22T21:18:54.526Z,6.83
2022-11-22T21:21:22.756Z,6.80
2022-11-22T21:23:52.762Z,7.03
2022-11-22T21:26:20.476Z,6.20
2022-11-22T21:28:48.366Z,5.83
2022-11-22T21:31:16.331Z,5.90
2022-11-22T21:33:45.424Z,5.30
2022-11-22T21:36:12.693Z,5.27
2022-11-22T21:38:40.040Z,5.60
2022-11-22T21:41:41.443Z,6.30
2022-11-22T21:43:59.462Z,5.13
2022-11-22T21:46:26.619Z,5.87
2022-11-22T21:48:55.706Z,5.10
2022-11-22T21:51:25.687Z,6.10
2022-11-22T21:53:57.415Z,7.20
2022-11-22T21:56:24.997Z,4.77
2022-11-22T21:58:52.264Z,5.60
2022-11-22T22:01:19.626Z,4.77
2022-11-22T22:03:46.889Z,4.90
2022-11-22T22:06:14.153Z,9.00
2022-11-22T22:08:41.408Z,15.60
2022-11-22T22:11:08.815Z,15.90
2022-11-22T22:13:36.251Z,16.53
2022-11-22T22:16:06.731Z,11.10
2022-11-22T22:18:36.368Z,19.60
2022-11-22T22:21:08.949Z,11.43
2022-11-22T22:23:38.333Z,9.63
2022-11-22T22:26:08.072Z,11.87
2022-11-22T22:28:36.884Z,10.67
2022-11-22T22:31:06.832Z,7.10
2022-11-22T22:33:36.297Z,7.60
2022-11-22T22:36:04.696Z,7.00
2022-11-22T22:38:32.836Z,5.23
2022-11-22T22:41:02.227Z,5.53
2022-11-22T22:43:41.722Z,4.87
2022-11-22T22:46:16.234Z,5.03
2022-11-22T22:48:44.083Z,4.57
2022-11-22T22:51:15.674Z,4.80
2022-11-22T22:53:45.456Z,4.67
2022-11-22T22:56:14.371Z,4.07
2022-11-22T22:58:41.834Z,4.23
2022-11-22T23:01:18.003Z,3.87
2022-11-22T23:03:57.546Z,4.43
2022-11-22T23:06:26.735Z,3.67
2022-11-22T23:08:56.126Z,4.07
2022-11-22T23:11:46.257Z,4.27
2022-11-22T23:14:16.327Z,3.90
2022-11-22T23:16:43.529Z,4.20
2022-11-22T23:19:10.867Z,3.80
2022-11-22T23:21:38.428Z,4.20
2022-11-22T23:24:06.239Z,4.00
2022-11-22T23:26:33.837Z,3.57
2022-11-22T23:29:01.103Z,4.00
2022-11-22T23:31:28.639Z,3.90
2022-11-22T23:33:55.953Z,4.30
2022-11-22T23:36:23.546Z,4.30
2022-11-22T23:38:50.728Z,3.93
2022-11-22T23:41:23.505Z,4.20
2022-11-22T23:43:55.517Z,4.00
2022-11-22T23:46:26.744Z,3.80
2022-11-22T23:48:56.673Z,4.10
2022-11-22T23:51:25.256Z,4.40
2022-11-22T23:53:57.026Z,4.43
2022-11-22T23:56:24.686Z,4.23
2022-11-22T23:58:52.600Z,4.07
